sensor_id;sensor_type;location;lat;lon;timestamp;temperature;humidity
2130;DHT22;1071;52.544;13.374;2023-03-14T00:01:10;14.20;99.90
2130;DHT22;1071;52.544;13.374;2023-03-14T00:03:38;14.20;99.90
2130;DHT22;1071;52.544;13.374;2023-03-14T00:06:07;14.20;99.90
2130;DHT22;1071;52.544;13.374;2023-03-14T00:08:35;14.20;99.90
2130;DHT22;1071;52.544;13.374;2023-03-14T00:11:06;14.20;99.90
2130;DHT22;1071;52.544;13.374;2023-03-14T00:13:33;14.10;99.90
2130;DHT22;1071;52.544;13.374;2023-03-14T00:16:04;14.10;99.90
2130;DHT22;1071;52.544;13.374;2023-03-14T00:18:32;14.00;99.90
2130;DHT22;1071;52.544;13.374;2023-03-14T00:21:02;14.00;99.90
2130;DHT22;1071;52.544;13.374;2023-03-14T00:23:32;14.00;99.90
2130;DHT22;1071;52.544;13.374;2023-03-14T00:25:59;14.00;99.90
2130;DHT22;1071;52.544;13.374;2023-03-14T00:28:27;14.00;99.90
2130;DHT22;1071;52.544;13.374;2023-03-14T00:30:54;14.00;99.90
2130;DHT22;1071;52.544;13.374;2023-03-14T00:33:24;13.90;99.90
2130;DHT22;1071;52.544;13.374;2023-03-14T00:35:55;13.90;99.90
2130;DHT22;1071;52.544;13.374;2023-03-14T00:38:23;13.90;99.90
2130;DHT22;1071;52.544;13.374;2023-03-14T00:40:52;13.80;99.90
2130;DHT22;1071;52.544;13.374;2023-03-14T00:43:20;13.80;99.90
2130;DHT22;1071;52.544;13.374;2023-03-14T00:45:48;13.80;99.90
2130;DHT22;1071;52.544;13.374;2023-03-14T00:48:15;13.80;99.90
2130;DHT22;1071;52.544;13.374;2023-03-14T00:50:42;13.70;99.90
2130;DHT22;1071;52.544;13.374;2023-03-14T00:53:09;13.70;99.90
2130;DHT22;1071;52.544;13.374;2023-03-14T00:55:37;13.60;99.90
2130;DHT22;1071;52.544;13.374;2023-03-14T00:58:06;13.70;99.90
2130;DHT22;1071;52.544;13.374;2023-03-14T01:00:33;13.60;99.90
2130;DHT22;1071;52.544;13.374;2023-03-14T01:03:00;13.60;99.90
2130;DHT22;1071;52.544;13.374;2023-03-14T01:05:27;13.60;99.90
2130;DHT22;1071;52.544;13.374;2023-03-14T01:07:54;13.60;99.90
2130;DHT22;1071;52.544;13.374;2023-03-14T01:10:21;13.60;99.90
2130;DHT22;1071;52.544;13.374;2023-03-14T01:12:49;13.60;99.90
2130;DHT22;1071;52.544;13.374;2023-03-14T01:15:18;13.60;99.90
2130;DHT22;1071;52.544;13.374;2023-03-14T01:17:47;13.60;99.90
2130;DHT22;1071;52.544;13.374;2023-03-14T01:20:16;13.50;99.90
2130;DHT22;1071;52.544;13.374;2023-03-14T01:22:43;13.50;99.90
2130;DHT22;1071;52.544;13.374;2023-03-14T01:25:12;13.50;99.90
2130;DHT22;1071;52.544;13.374;2023-03-14T01:27:43;13.40;99.90
2130;DHT22;1071;52.544;13.374;2023-03-14T01:30:11;13.40;99.90
2130;DHT22;1071;52.544;13.374;2023-03-14T01:32:41;13.40;99.90
2130;DHT22;1071;52.544;13.374;2023-03-14T01:35:08;13.30;99.90
2130;DHT22;1071;52.544;13.374;2023-03-14T01:37:35;13.30;99.90
2130;DHT22;1071;52.544;13.374;2023-03-14T01:40:02;13.30;99.90
2130;DHT22;1071;52.544;13.374;2023-03-14T01:42:31;13.30;99.90
2130;DHT22;1071;52.544;13.374;2023-03-14T01:45:00;13.30;99.90
2130;DHT22;1071;52.544;13.374;2023-03-14T01:47:27;13.30;99.90
2130;DHT22;1071;52.544;13.374;2023-03-14T01:50:01;13.30;99.90
2130;DHT22;1071;52.544;13.374;2023-03-14T01:52:33;13.30;99.90
2130;DHT22;1071;52.544;13.374;2023-03-14T01:55:05;13.20;99.90
2130;DHT22;1071;52.544;13.374;2023-03-14T01:57:36;13.20;99.90
2130;DHT22;1071;52.544;13.374;2023-03-14T02:00:07;13.20;99.90
2130;DHT22;1071;52.544;13.374;2023-03-14T02:02:39;13.30;99.90
2130;DHT22;1071;52.544;13.374;2023-03-14T02:05:09;13.20;99.90
2130;DHT22;1071;52.544;13.374;2023-03-14T02:07:42;13.20;99.90
2130;DHT22;1071;52.544;13.374;2023-03-14T02:10:12;13.20;99.90
2130;DHT22;1071;52.544;13.374;2023-03-14T02:12:41;13.20;99.90
2130;DHT22;1071;52.544;13.374;2023-03-14T02:15:09;13.20;99.90
2130;DHT22;1071;52.544;13.374;2023-03-14T02:17:37;13.20;99.90
2130;DHT22;1071;52.544;13.374;2023-03-14T02:20:24;13.20;99.90
2130;DHT22;1071;52.544;13.374;2023-03-14T02:22:54;13.20;99.90
2130;DHT22;1071;52.544;13.374;2023-03-14T02:25:28;13.10;99.90
2130;DHT22;1071;52.544;13.374;2023-03-14T02:28:00;13.20;99.90
2130;DHT22;1071;52.544;13.374;2023-03-14T02:30:29;13.10;99.90
2130;DHT22;1071;52.544;13.374;2023-03-14T02:32:58;13.10;99.90
2130;DHT22;1071;52.544;13.374;2023-03-14T02:35:29;13.10;99.90
2130;DHT22;1071;52.544;13.374;2023-03-14T02:38:02;13.10;99.90
2130;DHT22;1071;52.544;13.374;2023-03-14T02:40:31;13.00;99.90
2130;DHT22;1071;52.544;13.374;2023-03-14T02:42:59;13.00;99.90
2130;DHT22;1071;52.544;13.374;2023-03-14T02:45:35;13.10;99.90
2130;DHT22;1071;52.544;13.374;2023-03-14T02:48:07;13.10;99.90
2130;DHT22;1071;52.544;13.374;2023-03-14T02:50:35;13.10;99.90
2130;DHT22;1071;52.544;13.374;2023-03-14T02:53:02;13.10;99.90
2130;DHT22;1071;52.544;13.374;2023-03-14T02:55:30;13.10;99.90
2130;DHT22;1071;52.544;13.374;2023-03-14T02:57:57;13.10;99.90
2130;DHT22;1071;52.544;13.374;2023-03-14T03:00:25;13.10;99.90
2130;DHT22;1071;52.544;13.374;2023-03-14T03:02:53;13.10;99.90
2130;DHT22;1071;52.544;13.374;2023-03-14T03:05:20;13.10;99.90
2130;DHT22;1071;52.544;13.374;2023-03-14T03:07:47;13.20;99.90
2130;DHT22;1071;52.544;13.374;2023-03-14T03:10:14;13.20;99.90
2130;DHT22;1071;52.544;13.374;2023-03-14T03:12:41;13.20;99.90
2130;DHT22;1071;52.544;13.374;2023-03-14T03:15:10;13.20;99.90
2130;DHT22;1071;52.544;13.374;2023-03-14T03:17:38;13.20;99.90
2130;DHT22;1071;52.544;13.374;2023-03-14T03:20:06;13.10;99.90
2130;DHT22;1071;52.544;13.374;2023-03-14T03:22:35;13.10;99.90
2130;DHT22;1071;52.544;13.374;2023-03-14T03:25:02;13.10;99.90
2130;DHT22;1071;52.544;13.374;2023-03-14T03:27:30;13.10;99.90
2130;DHT22;1071;52.544;13.374;2023-03-14T03:29:58;13.00;99.90
2130;DHT22;1071;52.544;13.374;2023-03-14T03:32:25;13.10;99.90
2130;DHT22;1071;52.544;13.374;2023-03-14T03:34:53;13.00;99.90
2130;DHT22;1071;52.544;13.374;2023-03-14T03:37:20;13.00;99.90
2130;DHT22;1071;52.544;13.374;2023-03-14T03:39:49;13.00;99.90
2130;DHT22;1071;52.544;13.374;2023-03-14T03:42:17;13.00;99.90
2130;DHT22;1071;52.544;13.374;2023-03-14T03:44:45;13.00;99.90
2130;DHT22;1071;52.544;13.374;2023-03-14T03:47:12;12.90;99.90
2130;DHT22;1071;52.544;13.374;2023-03-14T03:49:39;12.90;99.90
2130;DHT22;1071;52.544;13.374;2023-03-14T03:52:08;12.90;99.90
2130;DHT22;1071;52.544;13.374;2023-03-14T03:54:35;12.90;99.90
2130;DHT22;1071;52.544;13.374;2023-03-14T03:57:03;12.90;99.90
2130;DHT22;1071;52.544;13.374;2023-03-14T03:59:30;12.90;99.90
2130;DHT22;1071;52.544;13.374;2023-03-14T04:01:57;12.90;99.90
2130;DHT22;1071;52.544;13.374;2023-03-14T04:04:24;12.90;99.90
2130;DHT22;1071;52.544;13.374;2023-03-14T04:06:51;12.90;99.90
2130;DHT22;1071;52.544;13.374;2023-03-14T04:09:19;12.90;99.90
2130;DHT22;1071;52.544;13.374;2023-03-14T04:11:46;12.80;99.90
2130;DHT22;1071;52.544;13.374;2023-03-14T04:14:13;12.80;99.90
2130;DHT22;1071;52.544;13.374;2023-03-14T04:16:41;12.80;99.90
2130;DHT22;1071;52.544;13.374;2023-03-14T04:19:08;12.80;99.90
2130;DHT22;1071;52.544;13.374;2023-03-14T04:21:35;12.80;99.90
2130;DHT22;1071;52.544;13.374;2023-03-14T04:24:02;12.80;99.90
2130;DHT22;1071;52.544;13.374;2023-03-14T04:26:30;12.80;99.90
2130;DHT22;1071;52.544;13.374;2023-03-14T04:28:57;12.80;99.90
2130;DHT22;1071;52.544;13.374;2023-03-14T04:31:24;12.80;99.90
2130;DHT22;1071;52.544;13.374;2023-03-14T04:33:51;12.80;99.90
2130;DHT22;1071;52.544;13.374;2023-03-14T04:36:19;12.80;99.90
2130;DHT22;1071;52.544;13.374;2023-03-14T04:38:46;12.80;99.90
2130;DHT22;1071;52.544;13.374;2023-03-14T04:41:13;12.80;99.90
2130;DHT22;1071;52.544;13.374;2023-03-14T04:43:42;12.80;99.90
2130;DHT22;1071;52.544;13.374;2023-03-14T04:46:09;12.80;99.90
2130;DHT22;1071;52.544;13.374;2023-03-14T04:48:36;12.70;99.90
2130;DHT22;1071;52.544;13.374;2023-03-14T04:51:04;12.80;99.90
2130;DHT22;1071;52.544;13.374;2023-03-14T04:53:31;12.80;99.90
2130;DHT22;1071;52.544;13.374;2023-03-14T04:55:59;12.70;99.90
2130;DHT22;1071;52.544;13.374;2023-03-14T04:58:26;12.80;99.90
2130;DHT22;1071;52.544;13.374;2023-03-14T05:00:54;12.70;99.90
2130;DHT22;1071;52.544;13.374;2023-03-14T05:03:21;12.80;99.90
2130;DHT22;1071;52.544;13.374;2023-03-14T05:05:48;12.70;99.90
2130;DHT22;1071;52.544;13.374;2023-03-14T05:08:15;12.70;99.90
2130;DHT22;1071;52.544;13.374;2023-03-14T05:10:42;12.70;99.90
2130;DHT22;1071;52.544;13.374;2023-03-14T05:13:09;12.70;99.90
2130;DHT22;1071;52.544;13.374;2023-03-14T05:15:36;12.70;99.90
2130;DHT22;1071;52.544;13.374;2023-03-14T05:18:05;12.70;99.90
2130;DHT22;1071;52.544;13.374;2023-03-14T05:20:32;12.70;99.90
2130;DHT22;1071;52.544;13.374;2023-03-14T05:22:59;12.70;99.90
2130;DHT22;1071;52.544;13.374;2023-03-14T05:25:26;12.70;99.90
2130;DHT22;1071;52.544;13.374;2023-03-14T05:27:53;12.70;99.90
2130;DHT22;1071;52.544;13.374;2023-03-14T05:30:21;12.70;99.90
2130;DHT22;1071;52.544;13.374;2023-03-14T05:32:48;12.70;99.90
2130;DHT22;1071;52.544;13.374;2023-03-14T05:35:17;12.80;99.90
2130;DHT22;1071;52.544;13.374;2023-03-14T05:37:43;12.80;99.90
2130;DHT22;1071;52.544;13.374;2023-03-14T05:40:11;12.80;99.90
2130;DHT22;1071;52.544;13.374;2023-03-14T05:42:38;12.70;99.90
2130;DHT22;1071;52.544;13.374;2023-03-14T05:45:08;12.70;99.90
2130;DHT22;1071;52.544;13.374;2023-03-14T05:47:35;12.80;99.90
2130;DHT22;1071;52.544;13.374;2023-03-14T05:50:02;12.80;99.90
2130;DHT22;1071;52.544;13.374;2023-03-14T05:52:31;12.70;99.90
2130;DHT22;1071;52.544;13.374;2023-03-14T05:54:58;12.70;99.90
2130;DHT22;1071;52.544;13.374;2023-03-14T05:57:25;12.80;99.90
2130;DHT22;1071;52.544;13.374;2023-03-14T05:59:54;12.80;99.90
2130;DHT22;1071;52.544;13.374;2023-03-14T06:02:21;12.80;99.90
2130;DHT22;1071;52.544;13.374;2023-03-14T06:04:48;12.80;99.90
2130;DHT22;1071;52.544;13.374;2023-03-14T06:07:15;12.80;99.90
2130;DHT22;1071;52.544;13.374;2023-03-14T06:09:53;12.90;99.90
2130;DHT22;1071;52.544;13.374;2023-03-14T06:12:20;12.90;99.90
2130;DHT22;1071;52.544;13.374;2023-03-14T06:14:46;12.90;99.90
2130;DHT22;1071;52.544;13.374;2023-03-14T06:17:13;12.90;99.90
2130;DHT22;1071;52.544;13.374;2023-03-14T06:19:43;12.80;99.90
2130;DHT22;1071;52.544;13.374;2023-03-14T06:22:10;12.80;99.90
2130;DHT22;1071;52.544;13.374;2023-03-14T06:24:37;12.80;99.90
2130;DHT22;1071;52.544;13.374;2023-03-14T06:27:05;12.80;99.90
2130;DHT22;1071;52.544;13.374;2023-03-14T06:29:32;12.80;99.90
2130;DHT22;1071;52.544;13.374;2023-03-14T06:31:59;12.80;99.90
2130;DHT22;1071;52.544;13.374;2023-03-14T06:34:27;12.80;99.90
2130;DHT22;1071;52.544;13.374;2023-03-14T06:36:54;12.80;99.90
2130;DHT22;1071;52.544;13.374;2023-03-14T06:39:22;12.80;99.90
2130;DHT22;1071;52.544;13.374;2023-03-14T06:41:49;12.80;99.90
2130;DHT22;1071;52.544;13.374;2023-03-14T06:44:17;12.90;99.90
2130;DHT22;1071;52.544;13.374;2023-03-14T06:46:44;12.90;99.90
2130;DHT22;1071;52.544;13.374;2023-03-14T06:49:13;12.90;99.90
2130;DHT22;1071;52.544;13.374;2023-03-14T06:51:40;12.90;99.90
2130;DHT22;1071;52.544;13.374;2023-03-14T06:54:07;12.90;99.90
2130;DHT22;1071;52.544;13.374;2023-03-14T06:56:34;12.90;99.90
2130;DHT22;1071;52.544;13.374;2023-03-14T06:59:01;12.90;99.90
2130;DHT22;1071;52.544;13.374;2023-03-14T07:01:30;12.90;99.90
2130;DHT22;1071;52.544;13.374;2023-03-14T07:03:58;13.00;99.90
2130;DHT22;1071;52.544;13.374;2023-03-14T07:06:25;13.00;99.90
2130;DHT22;1071;52.544;13.374;2023-03-14T07:08:52;13.00;99.90
2130;DHT22;1071;52.544;13.374;2023-03-14T07:11:19;13.10;99.90
2130;DHT22;1071;52.544;13.374;2023-03-14T07:13:46;13.10;99.90
2130;DHT22;1071;52.544;13.374;2023-03-14T07:16:13;13.10;99.90
2130;DHT22;1071;52.544;13.374;2023-03-14T07:18:41;13.10;99.90
2130;DHT22;1071;52.544;13.374;2023-03-14T07:21:08;13.20;99.90
2130;DHT22;1071;52.544;13.374;2023-03-14T07:23:36;13.20;99.90
2130;DHT22;1071;52.544;13.374;2023-03-14T07:26:03;13.20;99.90
2130;DHT22;1071;52.544;13.374;2023-03-14T07:28:30;13.20;99.90
2130;DHT22;1071;52.544;13.374;2023-03-14T07:30:58;13.20;99.90
2130;DHT22;1071;52.544;13.374;2023-03-14T07:33:25;13.20;99.90
2130;DHT22;1071;52.544;13.374;2023-03-14T07:35:53;13.20;99.90
2130;DHT22;1071;52.544;13.374;2023-03-14T07:38:20;13.20;99.90
2130;DHT22;1071;52.544;13.374;2023-03-14T07:40:47;13.30;99.90
2130;DHT22;1071;52.544;13.374;2023-03-14T07:43:14;13.20;99.90
2130;DHT22;1071;52.544;13.374;2023-03-14T07:45:45;13.30;99.90
2130;DHT22;1071;52.544;13.374;2023-03-14T07:48:12;13.20;99.90
2130;DHT22;1071;52.544;13.374;2023-03-14T07:50:39;13.30;99.90
2130;DHT22;1071;52.544;13.374;2023-03-14T07:53:07;13.30;99.90
2130;DHT22;1071;52.544;13.374;2023-03-14T07:55:34;13.30;99.90
2130;DHT22;1071;52.544;13.374;2023-03-14T07:58:01;13.30;99.90
2130;DHT22;1071;52.544;13.374;2023-03-14T08:00:28;13.40;99.90
2130;DHT22;1071;52.544;13.374;2023-03-14T08:02:58;13.40;99.90
2130;DHT22;1071;52.544;13.374;2023-03-14T08:05:26;13.40;99.90
2130;DHT22;1071;52.544;13.374;2023-03-14T08:07:53;13.50;99.90
2130;DHT22;1071;52.544;13.374;2023-03-14T08:10:21;13.50;99.90
2130;DHT22;1071;52.544;13.374;2023-03-14T08:12:54;13.60;99.90
2130;DHT22;1071;52.544;13.374;2023-03-14T08:15:21;13.60;99.90
2130;DHT22;1071;52.544;13.374;2023-03-14T08:17:49;13.60;99.90
2130;DHT22;1071;52.544;13.374;2023-03-14T08:20:17;13.60;99.90
2130;DHT22;1071;52.544;13.374;2023-03-14T08:22:45;13.70;99.90
2130;DHT22;1071;52.544;13.374;2023-03-14T08:25:13;13.70;99.90
2130;DHT22;1071;52.544;13.374;2023-03-14T08:27:43;13.80;99.90
2130;DHT22;1071;52.544;13.374;2023-03-14T08:30:12;13.80;99.90
2130;DHT22;1071;52.544;13.374;2023-03-14T08:32:39;13.80;99.90
2130;DHT22;1071;52.544;13.374;2023-03-14T08:35:07;13.90;99.90
2130;DHT22;1071;52.544;13.374;2023-03-14T08:37:34;13.90;99.90
2130;DHT22;1071;52.544;13.374;2023-03-14T08:40:07;14.00;99.90
2130;DHT22;1071;52.544;13.374;2023-03-14T08:42:37;14.00;99.90
2130;DHT22;1071;52.544;13.374;2023-03-14T08:45:11;14.00;99.90
2130;DHT22;1071;52.544;13.374;2023-03-14T08:47:38;14.00;99.90
2130;DHT22;1071;52.544;13.374;2023-03-14T08:50:09;14.00;99.90
2130;DHT22;1071;52.544;13.374;2023-03-14T08:52:36;14.00;99.90
2130;DHT22;1071;52.544;13.374;2023-03-14T08:55:06;14.00;99.90
2130;DHT22;1071;52.544;13.374;2023-03-14T08:57:33;14.10;99.90
2130;DHT22;1071;52.544;13.374;2023-03-14T09:00:03;14.10;99.90
2130;DHT22;1071;52.544;13.374;2023-03-14T09:02:37;14.10;99.90
2130;DHT22;1071;52.544;13.374;2023-03-14T09:05:05;14.00;99.90
2130;DHT22;1071;52.544;13.374;2023-03-14T09:07:32;14.00;99.90
2130;DHT22;1071;52.544;13.374;2023-03-14T09:10:02;14.00;99.90
2130;DHT22;1071;52.544;13.374;2023-03-14T09:12:29;14.00;99.90
2130;DHT22;1071;52.544;13.374;2023-03-14T09:14:57;14.10;99.90
2130;DHT22;1071;52.544;13.374;2023-03-14T09:17:24;14.10;99.90
2130;DHT22;1071;52.544;13.374;2023-03-14T09:19:52;14.10;99.90
2130;DHT22;1071;52.544;13.374;2023-03-14T09:22:19;14.10;99.90
2130;DHT22;1071;52.544;13.374;2023-03-14T09:24:47;14.10;99.90
2130;DHT22;1071;52.544;13.374;2023-03-14T09:27:14;14.20;99.90
2130;DHT22;1071;52.544;13.374;2023-03-14T09:29:41;14.20;99.90
2130;DHT22;1071;52.544;13.374;2023-03-14T09:32:08;14.30;99.90
2130;DHT22;1071;52.544;13.374;2023-03-14T09:34:36;14.30;99.90
2130;DHT22;1071;52.544;13.374;2023-03-14T09:37:04;14.40;99.90
2130;DHT22;1071;52.544;13.374;2023-03-14T09:39:31;14.50;99.90
2130;DHT22;1071;52.544;13.374;2023-03-14T09:42:03;14.50;99.90
2130;DHT22;1071;52.544;13.374;2023-03-14T09:44:32;14.60;99.90
2130;DHT22;1071;52.544;13.374;2023-03-14T09:47:04;14.70;99.90
2130;DHT22;1071;52.544;13.374;2023-03-14T09:49:34;14.80;99.90
2130;DHT22;1071;52.544;13.374;2023-03-14T09:52:11;14.80;99.90
2130;DHT22;1071;52.544;13.374;2023-03-14T09:54:43;14.90;99.90
2130;DHT22;1071;52.544;13.374;2023-03-14T09:57:16;14.90;99.90
2130;DHT22;1071;52.544;13.374;2023-03-14T09:59:48;14.90;99.90
2130;DHT22;1071;52.544;13.374;2023-03-14T10:02:19;14.90;99.90
2130;DHT22;1071;52.544;13.374;2023-03-14T10:04:48;14.90;99.90
2130;DHT22;1071;52.544;13.374;2023-03-14T10:07:27;15.00;99.90
2130;DHT22;1071;52.544;13.374;2023-03-14T10:09:55;15.00;99.90
2130;DHT22;1071;52.544;13.374;2023-03-14T10:12:35;14.90;99.90
2130;DHT22;1071;52.544;13.374;2023-03-14T10:15:06;14.90;99.90
2130;DHT22;1071;52.544;13.374;2023-03-14T10:17:39;14.90;99.90
2130;DHT22;1071;52.544;13.374;2023-03-14T10:20:14;14.80;99.90
2130;DHT22;1071;52.544;13.374;2023-03-14T10:22:55;14.80;99.90
2130;DHT22;1071;52.544;13.374;2023-03-14T10:25:27;14.80;99.90
2130;DHT22;1071;52.544;13.374;2023-03-14T10:27:54;14.80;99.90
2130;DHT22;1071;52.544;13.374;2023-03-14T10:30:40;14.90;99.90
2130;DHT22;1071;52.544;13.374;2023-03-14T10:33:12;14.90;99.90
2130;DHT22;1071;52.544;13.374;2023-03-14T10:35:47;14.90;99.90
2130;DHT22;1071;52.544;13.374;2023-03-14T10:38:23;15.00;99.90
2130;DHT22;1071;52.544;13.374;2023-03-14T10:40:52;15.00;99.90
2130;DHT22;1071;52.544;13.374;2023-03-14T10:43:26;14.90;99.90
2130;DHT22;1071;52.544;13.374;2023-03-14T10:45:57;14.90;99.90
2130;DHT22;1071;52.544;13.374;2023-03-14T10:48:30;14.90;99.90
2130;DHT22;1071;52.544;13.374;2023-03-14T10:51:03;14.90;99.90
2130;DHT22;1071;52.544;13.374;2023-03-14T10:53:39;14.90;99.90
2130;DHT22;1071;52.544;13.374;2023-03-14T10:56:09;14.90;99.90
2130;DHT22;1071;52.544;13.374;2023-03-14T10:58:41;14.80;99.90
2130;DHT22;1071;52.544;13.374;2023-03-14T11:01:27;14.80;99.90
2130;DHT22;1071;52.544;13.374;2023-03-14T11:03:59;14.80;99.90
2130;DHT22;1071;52.544;13.374;2023-03-14T11:06:33;14.80;99.90
2130;DHT22;1071;52.544;13.374;2023-03-14T11:09:07;14.80;99.90
2130;DHT22;1071;52.544;13.374;2023-03-14T11:11:39;14.80;99.90
2130;DHT22;1071;52.544;13.374;2023-03-14T11:14:14;14.90;99.90
2130;DHT22;1071;52.544;13.374;2023-03-14T11:16:51;14.90;99.90
2130;DHT22;1071;52.544;13.374;2023-03-14T11:19:37;14.80;99.90
2130;DHT22;1071;52.544;13.374;2023-03-14T11:22:14;14.90;99.90
2130;DHT22;1071;52.544;13.374;2023-03-14T11:25:04;14.80;99.90
2130;DHT22;1071;52.544;13.374;2023-03-14T11:27:40;14.90;99.90
2130;DHT22;1071;52.544;13.374;2023-03-14T11:30:16;14.90;99.90
2130;DHT22;1071;52.544;13.374;2023-03-14T11:32:45;14.80;99.90
2130;DHT22;1071;52.544;13.374;2023-03-14T11:35:17;14.90;99.90
2130;DHT22;1071;52.544;13.374;2023-03-14T11:37:49;14.90;99.90
2130;DHT22;1071;52.544;13.374;2023-03-14T11:40:21;14.90;99.90
2130;DHT22;1071;52.544;13.374;2023-03-14T11:42:56;14.90;99.90
2130;DHT22;1071;52.544;13.374;2023-03-14T11:45:32;14.80;99.90
2130;DHT22;1071;52.544;13.374;2023-03-14T11:48:17;14.80;99.90
2130;DHT22;1071;52.544;13.374;2023-03-14T11:50:48;14.70;99.90
2130;DHT22;1071;52.544;13.374;2023-03-14T11:53:20;14.80;99.90
2130;DHT22;1071;52.544;13.374;2023-03-14T11:55:50;14.70;99.90
2130;DHT22;1071;52.544;13.374;2023-03-14T11:58:20;14.70;99.90
2130;DHT22;1071;52.544;13.374;2023-03-14T12:00:51;14.70;99.90
2130;DHT22;1071;52.544;13.374;2023-03-14T12:03:26;14.70;99.90
2130;DHT22;1071;52.544;13.374;2023-03-14T12:06:02;14.80;99.90
2130;DHT22;1071;52.544;13.374;2023-03-14T12:08:42;14.80;99.90
2130;DHT22;1071;52.544;13.374;2023-03-14T12:11:16;14.90;99.90
2130;DHT22;1071;52.544;13.374;2023-03-14T12:13:47;15.00;99.90
2130;DHT22;1071;52.544;13.374;2023-03-14T12:16:34;14.90;99.90
2130;DHT22;1071;52.544;13.374;2023-03-14T12:19:36;14.90;99.90
2130;DHT22;1071;52.544;13.374;2023-03-14T12:22:26;15.00;99.90
2130;DHT22;1071;52.544;13.374;2023-03-14T12:24:58;14.90;99.90
2130;DHT22;1071;52.544;13.374;2023-03-14T12:27:46;14.90;99.90
2130;DHT22;1071;52.544;13.374;2023-03-14T12:30:26;14.90;99.90
2130;DHT22;1071;52.544;13.374;2023-03-14T12:33:19;14.90;99.90
2130;DHT22;1071;52.544;13.374;2023-03-14T12:35:49;14.90;99.90
2130;DHT22;1071;52.544;13.374;2023-03-14T12:38:18;15.00;99.90
2130;DHT22;1071;52.544;13.374;2023-03-14T12:40:56;15.00;99.90
2130;DHT22;1071;52.544;13.374;2023-03-14T12:43:29;15.10;99.90
2130;DHT22;1071;52.544;13.374;2023-03-14T12:46:23;15.10;99.90
2130;DHT22;1071;52.544;13.374;2023-03-14T12:48:54;15.20;99.90
2130;DHT22;1071;52.544;13.374;2023-03-14T12:51:29;15.20;99.90
2130;DHT22;1071;52.544;13.374;2023-03-14T12:59:56;15.10;99.90
2130;DHT22;1071;52.544;13.374;2023-03-14T13:02:26;15.20;99.90
2130;DHT22;1071;52.544;13.374;2023-03-14T13:05:01;15.30;99.90
2130;DHT22;1071;52.544;13.374;2023-03-14T13:07:33;15.30;99.90
2130;DHT22;1071;52.544;13.374;2023-03-14T13:10:20;15.30;99.90
2130;DHT22;1071;52.544;13.374;2023-03-14T13:12:51;15.30;99.90
2130;DHT22;1071;52.544;13.374;2023-03-14T13:15:27;15.30;99.90
2130;DHT22;1071;52.544;13.374;2023-03-14T13:18:00;15.30;99.90
2130;DHT22;1071;52.544;13.374;2023-03-14T13:20:31;15.30;99.90
2130;DHT22;1071;52.544;13.374;2023-03-14T13:22:59;15.20;99.90
2130;DHT22;1071;52.544;13.374;2023-03-14T13:25:30;15.20;99.90
2130;DHT22;1071;52.544;13.374;2023-03-14T13:27:59;15.20;99.90
2130;DHT22;1071;52.544;13.374;2023-03-14T13:30:35;15.20;99.90
2130;DHT22;1071;52.544;13.374;2023-03-14T13:33:04;15.10;99.90
2130;DHT22;1071;52.544;13.374;2023-03-14T13:35:39;15.10;99.90
2130;DHT22;1071;52.544;13.374;2023-03-14T13:38:18;15.10;99.90
2130;DHT22;1071;52.544;13.374;2023-03-14T13:40:46;15.10;99.90
2130;DHT22;1071;52.544;13.374;2023-03-14T13:43:17;15.00;99.90
2130;DHT22;1071;52.544;13.374;2023-03-14T13:45:54;15.00;99.90
2130;DHT22;1071;52.544;13.374;2023-03-14T13:48:24;15.00;99.90
2130;DHT22;1071;52.544;13.374;2023-03-14T13:50:55;15.00;99.90
2130;DHT22;1071;52.544;13.374;2023-03-14T13:53:23;14.90;99.90
2130;DHT22;1071;52.544;13.374;2023-03-14T13:55:51;15.00;99.90
2130;DHT22;1071;52.544;13.374;2023-03-14T13:58:24;14.90;99.90
2130;DHT22;1071;52.544;13.374;2023-03-14T14:01:11;15.00;99.90
2130;DHT22;1071;52.544;13.374;2023-03-14T14:03:41;15.00;99.90
2130;DHT22;1071;52.544;13.374;2023-03-14T14:06:16;15.10;99.90
2130;DHT22;1071;52.544;13.374;2023-03-14T14:08:44;15.10;99.90
2130;DHT22;1071;52.544;13.374;2023-03-14T14:11:18;15.10;99.90
2130;DHT22;1071;52.544;13.374;2023-03-14T14:13:46;15.20;99.90
2130;DHT22;1071;52.544;13.374;2023-03-14T14:16:22;15.20;99.90
2130;DHT22;1071;52.544;13.374;2023-03-14T14:18:51;15.20;99.90
2130;DHT22;1071;52.544;13.374;2023-03-14T14:21:19;15.20;99.90
2130;DHT22;1071;52.544;13.374;2023-03-14T14:23:46;15.20;99.90
2130;DHT22;1071;52.544;13.374;2023-03-14T14:26:15;15.20;99.90
2130;DHT22;1071;52.544;13.374;2023-03-14T14:28:43;15.20;99.90
2130;DHT22;1071;52.544;13.374;2023-03-14T14:31:20;15.20;99.90
2130;DHT22;1071;52.544;13.374;2023-03-14T14:33:58;15.20;99.90
2130;DHT22;1071;52.544;13.374;2023-03-14T14:36:30;15.20;99.90
2130;DHT22;1071;52.544;13.374;2023-03-14T14:39:00;15.10;99.90
2130;DHT22;1071;52.544;13.374;2023-03-14T14:41:31;15.10;99.90
2130;DHT22;1071;52.544;13.374;2023-03-14T14:44:01;15.10;99.90
2130;DHT22;1071;52.544;13.374;2023-03-14T14:46:37;15.10;99.90
2130;DHT22;1071;52.544;13.374;2023-03-14T14:49:09;15.10;99.90
2130;DHT22;1071;52.544;13.374;2023-03-14T14:51:42;15.00;99.90
2130;DHT22;1071;52.544;13.374;2023-03-14T14:54:21;15.00;99.90
2130;DHT22;1071;52.544;13.374;2023-03-14T14:59:48;15.00;99.90
2130;DHT22;1071;52.544;13.374;2023-03-14T15:02:31;15.00;99.90
2130;DHT22;1071;52.544;13.374;2023-03-14T15:04:59;14.90;99.90
2130;DHT22;1071;52.544;13.374;2023-03-14T15:07:27;14.90;99.90
2130;DHT22;1071;52.544;13.374;2023-03-14T15:09:54;15.00;99.90
2130;DHT22;1071;52.544;13.374;2023-03-14T15:12:24;15.00;99.90
2130;DHT22;1071;52.544;13.374;2023-03-14T15:14:51;15.10;99.90
2130;DHT22;1071;52.544;13.374;2023-03-14T15:17:20;15.10;99.90
2130;DHT22;1071;52.544;13.374;2023-03-14T15:19:54;15.00;99.90
2130;DHT22;1071;52.544;13.374;2023-03-14T15:22:24;14.80;99.90
2130;DHT22;1071;52.544;13.374;2023-03-14T15:24:52;14.60;99.90
2130;DHT22;1071;52.544;13.374;2023-03-14T15:27:19;14.20;99.90
2130;DHT22;1071;52.544;13.374;2023-03-14T15:29:48;13.80;99.90
2130;DHT22;1071;52.544;13.374;2023-03-14T15:32:16;13.40;99.90
2130;DHT22;1071;52.544;13.374;2023-03-14T15:34:44;12.90;99.90
2130;DHT22;1071;52.544;13.374;2023-03-14T15:37:15;12.50;99.90
2130;DHT22;1071;52.544;13.374;2023-03-14T15:39:43;12.20;99.90
2130;DHT22;1071;52.544;13.374;2023-03-14T15:42:11;11.80;99.90
2130;DHT22;1071;52.544;13.374;2023-03-14T15:44:39;11.40;99.90
2130;DHT22;1071;52.544;13.374;2023-03-14T15:47:10;11.20;99.90
2130;DHT22;1071;52.544;13.374;2023-03-14T15:49:38;10.90;99.90
2130;DHT22;1071;52.544;13.374;2023-03-14T15:52:06;10.60;99.90
2130;DHT22;1071;52.544;13.374;2023-03-14T15:54:35;10.40;99.90
2130;DHT22;1071;52.544;13.374;2023-03-14T15:57:03;10.00;99.90
2130;DHT22;1071;52.544;13.374;2023-03-14T15:59:34;9.70;99.90
2130;DHT22;1071;52.544;13.374;2023-03-14T16:02:02;9.50;99.90
2130;DHT22;1071;52.544;13.374;2023-03-14T16:04:32;9.30;99.90
2130;DHT22;1071;52.544;13.374;2023-03-14T16:07:02;9.00;99.90
2130;DHT22;1071;52.544;13.374;2023-03-14T16:09:29;8.80;99.90
2130;DHT22;1071;52.544;13.374;2023-03-14T16:11:59;8.60;99.90
2130;DHT22;1071;52.544;13.374;2023-03-14T16:14:26;8.40;99.90